Hanjin Irene — H3QD — position and weather

sailwx.info

Track history (hours):
 
Tides and Currents Weather Stations Pressure Air Temp Water Temp Dewpoint Dewpoint Depression Visibility Wind Speed Wind Dir Waves Ship Positions

Hanjin Irene

Last reported at 2017-Dec-18 00:01 UTC. Time now 2018-Jan-20 17:22 UTC.
Position N 45°31' E 036°45'.
Warning: this ship's position is 33 days out of date.

Length 107 m; draft 2.5 m.

Type: Cargo ship. MMSI: 320228000.

Date/timePositionNaut miles runAvg speedWind from/ knotsBaromVisibWave heightAir tempDewpointWater temp
2017-Dec-18 00:01N 45°31' E 036°45'0 7.9
2017-Dec-18 00:00N 45°31' E 036°45'4 7.4
2017-Dec-17 23:30N 45°28' E 036°43'4 7.4
2017-Dec-17 23:00N 45°25' E 036°41'3 6.8
2017-Dec-17 22:30N 45°22' E 036°39'3 5.7
2017-Dec-17 22:00N 45°20' E 036°36'3 5.3
2017-Dec-17 21:30N 45°19' E 036°32'3 6.4
2017-Dec-17 21:00N 45°17' E 036°29'3 7.0
2017-Dec-17 20:30N 45°14' E 036°29'  
2017-Dec-09 01:34N 45°11' E 036°28'1 6.5
2017-Dec-09 01:28N 45°12' E 036°28'3 6.6
2017-Dec-09 01:00N 45°15' E 036°28'3 6.3
2017-Dec-09 00:30N 45°18' E 036°29'3 6.2
2017-Dec-09 00:00N 45°19' E 036°33'3 6.2
2017-Dec-08 23:31N 45°21' E 036°37'3 5.6
2017-Dec-08 23:00N 45°23' E 036°40'3 6.6
2017-Dec-08 22:31N 45°26' E 036°41'2 4.7
2017-Dec-08 22:01N 45°28' E 036°40'0 0.1
2017-Dec-08 21:29N 45°28' E 036°40'0 0.0
2017-Dec-08 20:59N 45°28' E 036°40'0 0.0
2017-Dec-08 20:29N 45°28' E 036°40'0 0.0
2017-Dec-08 19:59N 45°28' E 036°40'0 0.0
2017-Dec-08 19:26N 45°28' E 036°40'0 0.1
2017-Dec-08 18:59N 45°28' E 036°40'0 0.0
2017-Dec-08 18:29N 45°28' E 036°40'0 0.0
2017-Dec-08 17:59N 45°28' E 036°40'0 0.1
2017-Dec-08 17:29N 45°28' E 036°40'0 0.0
2017-Dec-08 16:47N 45°28' E 036°40'0 0.0
2017-Dec-08 16:29N 45°28' E 036°40'0 0.0
2017-Dec-08 15:59N 45°28' E 036°40'0 0.0
2017-Dec-08 15:29N 45°28' E 036°40'0 0.0
2017-Dec-08 14:59N 45°28' E 036°40'0 0.0
2017-Dec-08 14:23N 45°28' E 036°40'0 0.0
2017-Dec-08 13:59N 45°28' E 036°40'0 0.0
2017-Dec-08 13:29N 45°28' E 036°40'0 0.0
2017-Dec-08 12:59N 45°28' E 036°40'0 0.0
2017-Dec-08 12:29N 45°28' E 036°40'0 0.0
2017-Dec-08 11:59N 45°28' E 036°40'0 0.0
2017-Dec-08 11:29N 45°28' E 036°40'0 0.0
2017-Dec-08 10:59N 45°28' E 036°40'0 0.0
2017-Dec-08 10:29N 45°28' E 036°40'0 0.0
2017-Dec-08 09:59N 45°28' E 036°40'0 0.0
2017-Dec-08 09:29N 45°28' E 036°40'0 0.0
2017-Dec-08 08:59N 45°28' E 036°40'0 0.0
2017-Dec-08 08:29N 45°28' E 036°40'0 0.0
2017-Dec-08 07:59N 45°28' E 036°40'0 0.0
2017-Dec-08 07:29N 45°28' E 036°40'0 0.0
2017-Dec-08 06:59N 45°28' E 036°40'0 0.0
2017-Dec-08 06:29N 45°28' E 036°40'0 0.2
2017-Dec-08 06:01N 45°28' E 036°40'2 4.7
2017-Dec-08 05:30N 45°30' E 036°42'  
Track history (hours):
 
Tides and Currents Weather Stations Pressure Air Temp Water Temp Dewpoint Dewpoint Depression Visibility Wind Speed Wind Dir Waves Ship Positions

Hanjin Irene

Last reported at 2017-Dec-18 00:01 UTC. Time now 2018-Jan-20 17:22 UTC.
Position N 45°31' E 036°45'.
Warning: this ship's position is 33 days out of date.

Length 107 m; draft 2.5 m.

Type: Cargo ship. MMSI: 320228000.

Date/timePositionNaut miles runAvg speedWind from/ knotsBaromVisibWave heightAir tempDewpointWater temp
2017-Dec-18 00:01N 45°31' E 036°45'0 7.9
2017-Dec-18 00:00N 45°31' E 036°45'4 7.4
2017-Dec-17 23:30N 45°28' E 036°43'4 7.4
2017-Dec-17 23:00N 45°25' E 036°41'3 6.8
2017-Dec-17 22:30N 45°22' E 036°39'3 5.7
2017-Dec-17 22:00N 45°20' E 036°36'3 5.3
2017-Dec-17 21:30N 45°19' E 036°32'3 6.4
2017-Dec-17 21:00N 45°17' E 036°29'3 7.0
2017-Dec-17 20:30N 45°14' E 036°29'  
2017-Dec-09 01:34N 45°11' E 036°28'1 6.5
2017-Dec-09 01:28N 45°12' E 036°28'3 6.6
2017-Dec-09 01:00N 45°15' E 036°28'3 6.3
2017-Dec-09 00:30N 45°18' E 036°29'3 6.2
2017-Dec-09 00:00N 45°19' E 036°33'3 6.2
2017-Dec-08 23:31N 45°21' E 036°37'3 5.6
2017-Dec-08 23:00N 45°23' E 036°40'3 6.6
2017-Dec-08 22:31N 45°26' E 036°41'2 4.7
2017-Dec-08 22:01N 45°28' E 036°40'0 0.1
2017-Dec-08 21:29N 45°28' E 036°40'0 0.0
2017-Dec-08 20:59N 45°28' E 036°40'0 0.0
2017-Dec-08 20:29N 45°28' E 036°40'0 0.0
2017-Dec-08 19:59N 45°28' E 036°40'0 0.0
2017-Dec-08 19:26N 45°28' E 036°40'0 0.1
2017-Dec-08 18:59N 45°28' E 036°40'0 0.0
2017-Dec-08 18:29N 45°28' E 036°40'0 0.0
2017-Dec-08 17:59N 45°28' E 036°40'0 0.1
2017-Dec-08 17:29N 45°28' E 036°40'0 0.0
2017-Dec-08 16:47N 45°28' E 036°40'0 0.0
2017-Dec-08 16:29N 45°28' E 036°40'0 0.0
2017-Dec-08 15:59N 45°28' E 036°40'0 0.0
2017-Dec-08 15:29N 45°28' E 036°40'0 0.0
2017-Dec-08 14:59N 45°28' E 036°40'0 0.0
2017-Dec-08 14:23N 45°28' E 036°40'0 0.0
2017-Dec-08 13:59N 45°28' E 036°40'0 0.0
2017-Dec-08 13:29N 45°28' E 036°40'0 0.0
2017-Dec-08 12:59N 45°28' E 036°40'0 0.0
2017-Dec-08 12:29N 45°28' E 036°40'0 0.0
2017-Dec-08 11:59N 45°28' E 036°40'0 0.0
2017-Dec-08 11:29N 45°28' E 036°40'0 0.0
2017-Dec-08 10:59N 45°28' E 036°40'0 0.0
2017-Dec-08 10:29N 45°28' E 036°40'0 0.0
2017-Dec-08 09:59N 45°28' E 036°40'0 0.0
2017-Dec-08 09:29N 45°28' E 036°40'0 0.0
2017-Dec-08 08:59N 45°28' E 036°40'0 0.0
2017-Dec-08 08:29N 45°28' E 036°40'0 0.0
2017-Dec-08 07:59N 45°28' E 036°40'0 0.0
2017-Dec-08 07:29N 45°28' E 036°40'0 0.0
2017-Dec-08 06:59N 45°28' E 036°40'0 0.0
2017-Dec-08 06:29N 45°28' E 036°40'0 0.2
2017-Dec-08 06:01N 45°28' E 036°40'2 4.7
2017-Dec-08 05:30N 45°30' E 036°42'  

Dump ship's entire track history